createdAt,value
2019-04-16T00:02:43.223Z,1.00
2019-04-16T00:05:27.724Z,1.00
2019-04-16T00:08:19.542Z,0.90
2019-04-16T00:10:51.315Z,1.00
2019-04-16T00:13:30.983Z,0.90
2019-04-16T00:16:03.404Z,1.00
2019-04-16T00:18:34.148Z,0.90
2019-04-16T00:21:26.729Z,0.90
2019-04-16T00:24:19.850Z,1.00
2019-04-16T00:26:58.099Z,1.00
2019-04-16T00:29:25.394Z,0.80
2019-04-16T00:32:02.151Z,0.80
2019-04-16T00:34:34.185Z,0.70
2019-04-16T00:37:04.741Z,0.70
2019-04-16T00:39:35.198Z,0.70
2019-04-16T00:42:26.391Z,0.70
2019-04-16T00:44:55.629Z,0.70
2019-04-16T00:47:26.135Z,0.70
2019-04-16T00:49:58.745Z,0.70
2019-04-16T00:52:28.817Z,0.60
2019-04-16T00:54:59.399Z,0.70
2019-04-16T00:57:33.209Z,0.70
2019-04-16T01:00:04.520Z,0.70
2019-04-16T01:02:35.096Z,0.70
2019-04-16T01:05:06.081Z,0.60
2019-04-16T01:07:36.674Z,0.50
2019-04-16T01:10:07.318Z,0.40
2019-04-16T01:12:54.639Z,0.40
2019-04-16T01:15:23.860Z,0.40
2019-04-16T01:17:54.402Z,0.40
2019-04-16T01:20:24.848Z,0.40
2019-04-16T01:22:55.331Z,0.40
2019-04-16T01:25:25.806Z,0.40
2019-04-16T01:28:09.364Z,0.40
2019-04-16T01:31:00.030Z,0.30
2019-04-16T01:33:43.410Z,0.20
2019-04-16T01:37:06.432Z,0.10
2019-04-16T01:39:36.430Z,0.10
2019-04-16T01:42:08.503Z,0.10
2019-04-16T01:44:38.919Z,0.10
2019-04-16T01:47:09.379Z,0.10
2019-04-16T01:49:42.079Z,0.10
2019-04-16T01:52:11.897Z,0.10
2019-04-16T01:54:42.425Z,0.10
2019-04-16T01:57:12.973Z,0.20
2019-04-16T01:59:43.518Z,0.20
2019-04-16T02:02:15.755Z,0.20
2019-04-16T02:04:48.431Z,0.00
2019-04-16T02:07:18.288Z,0.00
2019-04-16T02:09:48.768Z,-0.10
2019-04-16T02:12:20.216Z,-0.10
2019-04-16T02:14:51.195Z,-0.10
2019-04-16T02:17:21.597Z,-0.10
2019-04-16T02:19:52.015Z,-0.20
2019-04-16T02:22:22.499Z,-0.20
2019-04-16T02:24:52.938Z,-0.30
2019-04-16T02:27:26.106Z,-0.30
2019-04-16T02:29:55.623Z,-0.30
2019-04-16T02:32:26.204Z,-0.30
2019-04-16T02:34:56.664Z,-0.40
2019-04-16T02:37:27.205Z,-0.40
2019-04-16T02:39:59.198Z,-0.40
2019-04-16T02:42:32.017Z,-0.40
2019-04-16T02:45:02.204Z,-0.40
2019-04-16T02:47:40.239Z,-0.40
2019-04-16T02:50:08.360Z,-0.40
2019-04-16T02:52:50.392Z,-0.40
2019-04-16T02:55:33.157Z,-0.40
2019-04-16T02:58:25.316Z,-0.50
2019-04-16T03:01:09.819Z,-0.50
2019-04-16T03:03:44.269Z,-0.50
2019-04-16T03:06:14.654Z,-0.50
2019-04-16T03:08:45.215Z,-0.50
2019-04-16T03:11:17.088Z,-0.50
2019-04-16T03:13:47.816Z,-0.60
2019-04-16T03:16:29.434Z,-0.50
2019-04-16T03:19:05.117Z,-0.60
2019-04-16T03:21:35.455Z,-0.60
2019-04-16T03:24:09.339Z,-0.60
2019-04-16T03:26:37.980Z,-0.60
2019-04-16T03:29:08.556Z,-0.60
2019-04-16T03:31:39.033Z,-0.60
2019-04-16T03:34:09.581Z,-0.70
2019-04-16T03:36:40.059Z,-0.70
2019-04-16T03:39:13.217Z,-0.70
2019-04-16T03:41:42.818Z,-0.70
2019-04-16T03:44:13.284Z,-0.70
2019-04-16T03:46:46.748Z,-0.70
2019-04-16T03:49:15.929Z,-0.70
2019-04-16T03:51:46.481Z,-0.70
2019-04-16T03:54:19.309Z,-0.80
2019-04-16T03:56:49.026Z,-0.80
2019-04-16T03:59:19.571Z,-0.80
2019-04-16T04:01:49.988Z,-0.80
2019-04-16T04:04:28.954Z,-0.90
2019-04-16T04:06:57.220Z,-0.90
2019-04-16T04:09:27.765Z,-0.90
2019-04-16T04:11:58.453Z,-0.90
2019-04-16T04:14:29.068Z,-0.80
2019-04-16T04:16:59.525Z,-0.80
2019-04-16T04:19:29.959Z,-0.80
2019-04-16T04:22:00.459Z,-0.70
2019-04-16T04:24:31.446Z,-0.70
2019-04-16T04:27:02.571Z,-0.60
2019-04-16T04:29:33.006Z,-0.70
2019-04-16T04:32:04.241Z,-0.60
2019-04-16T04:34:34.821Z,-0.60
2019-04-16T04:37:05.360Z,-0.60
2019-04-16T04:39:35.894Z,-0.60
2019-04-16T04:42:06.526Z,-0.50
2019-04-16T04:44:37.164Z,-0.50
2019-04-16T04:47:07.944Z,-0.40
2019-04-16T04:49:38.585Z,-0.30
2019-04-16T04:52:13.564Z,-0.20
2019-04-16T04:54:41.046Z,-0.20
2019-04-16T04:57:11.544Z,-0.20
2019-04-16T04:59:42.026Z,-0.20
2019-04-16T05:02:14.667Z,-0.20
2019-04-16T05:04:52.496Z,-0.20
2019-04-16T05:07:25.731Z,-0.10
2019-04-16T05:09:55.788Z,-0.10
2019-04-16T05:12:30.174Z,-0.10
2019-04-16T05:15:03.831Z,-0.10
2019-04-16T05:17:35.500Z,0.00
2019-04-16T05:20:06.594Z,0.10
2019-04-16T05:22:37.154Z,0.10
2019-04-16T05:25:07.610Z,0.20
2019-04-16T05:27:41.029Z,0.40
2019-04-16T05:30:10.399Z,0.40
2019-04-16T05:32:40.970Z,0.30
2019-04-16T05:35:11.456Z,0.30
2019-04-16T05:37:41.899Z,0.30
2019-04-16T05:40:13.732Z,0.20
2019-04-16T05:42:44.394Z,0.20
2019-04-16T05:47:59.516Z,0.10
2019-04-16T05:50:30.058Z,0.10
2019-04-16T05:53:01.538Z,0.10
2019-04-16T05:55:37.544Z,0.10
2019-04-16T05:58:08.097Z,0.20
2019-04-16T06:01:03.742Z,0.30
2019-04-16T06:03:34.352Z,0.60
2019-04-16T06:06:04.985Z,1.10
2019-04-16T06:08:38.180Z,1.50
2019-04-16T06:11:07.985Z,2.10
2019-04-16T06:13:45.246Z,2.60
2019-04-16T06:16:33.321Z,3.30
2019-04-16T06:19:47.519Z,3.80
2019-04-16T06:22:22.085Z,3.90
2019-04-16T06:25:14.699Z,4.10
2019-04-16T06:28:07.018Z,4.40
2019-04-16T06:30:51.538Z,5.10
2019-04-16T06:33:32.255Z,5.10
2019-04-16T06:36:19.459Z,5.70
2019-04-16T06:38:57.633Z,5.50
2019-04-16T06:41:47.869Z,5.70
2019-04-16T06:44:21.042Z,5.60
2019-04-16T06:47:10.526Z,6.00
2019-04-16T06:50:00.200Z,6.10
2019-04-16T06:52:41.530Z,6.00
2019-04-16T06:55:24.322Z,6.20
2019-04-16T06:58:28.012Z,6.50
2019-04-16T07:01:28.708Z,7.20
2019-04-16T07:04:20.407Z,7.10
2019-04-16T07:07:09.494Z,7.40
2019-04-16T07:09:48.917Z,7.30
2019-04-16T07:12:23.851Z,7.10
2019-04-16T07:14:54.467Z,7.40
2019-04-16T07:20:19.534Z,7.70
2019-04-16T07:22:52.742Z,8.30
2019-04-16T07:25:26.378Z,8.60
2019-04-16T07:28:25.149Z,9.20
2019-04-16T07:31:06.219Z,9.50
2019-04-16T07:33:56.822Z,9.80
2019-04-16T07:36:36.479Z,9.60
2019-04-16T07:39:29.702Z,9.90
2019-04-16T07:42:21.248Z,10.50
2019-04-16T07:45:03.402Z,10.90
2019-04-16T07:48:11.196Z,11.10
2019-04-16T07:51:01.857Z,12.00
2019-04-16T07:53:57.561Z,11.70
2019-04-16T07:56:28.005Z,12.00
2019-04-16T07:59:01.325Z,12.30
2019-04-16T08:01:30.830Z,12.50
2019-04-16T08:12:32.175Z,13.80
2019-04-16T08:15:13.328Z,13.90
2019-04-16T08:17:35.606Z,14.00
2019-04-16T08:20:06.402Z,14.10
2019-04-16T08:22:39.909Z,14.20
2019-04-16T08:25:11.226Z,14.20
2019-04-16T08:27:47.142Z,14.40
2019-04-16T12:57:40.522Z,13.90
2019-04-16T13:00:31.716Z,13.70
2019-04-16T13:06:39.961Z,13.50
2019-04-16T13:09:50.004Z,13.50
2019-04-16T13:12:26.600Z,13.90
2019-04-16T13:15:17.143Z,13.50
2019-04-16T13:18:19.018Z,13.50
2019-04-16T13:21:15.914Z,13.50
2019-04-16T13:23:57.008Z,13.40
2019-04-16T13:29:32.573Z,13.10
2019-04-16T13:32:03.108Z,13.30
2019-04-16T13:34:33.523Z,13.60
2019-04-16T13:37:04.164Z,13.70
2019-04-16T13:39:53.874Z,14.10
2019-04-16T13:42:24.396Z,14.10
2019-04-16T13:45:25.559Z,14.10
2019-04-16T13:47:55.636Z,14.40
2019-04-16T13:54:17.340Z,14.00
2019-04-16T13:56:53.403Z,13.70
2019-04-16T14:00:04.706Z,13.50
2019-04-16T14:02:55.822Z,13.70
2019-04-16T14:05:26.493Z,13.80
2019-04-16T14:07:56.948Z,13.90
2019-04-16T14:10:27.509Z,13.30
2019-04-16T14:12:57.973Z,13.10
2019-04-16T14:15:35.598Z,13.40
2019-04-16T14:18:03.670Z,13.30
2019-04-16T14:20:34.165Z,13.40
2019-04-16T14:23:04.654Z,13.50
2019-04-16T14:25:35.064Z,13.40
2019-04-16T14:28:05.444Z,13.00
2019-04-16T14:30:42.698Z,13.20
2019-04-16T14:33:42.952Z,13.30
2019-04-16T14:36:13.683Z,13.50
2019-04-16T14:38:48.660Z,13.10
2019-04-16T14:41:19.280Z,13.10
2019-04-16T14:43:54.853Z,13.00
2019-04-16T14:46:28.244Z,13.30
2019-04-16T14:48:57.492Z,13.30
2019-04-16T14:51:28.022Z,13.10
2019-04-16T14:54:17.688Z,13.00
2019-04-16T14:56:51.293Z,13.00
2019-04-16T14:59:34.153Z,12.90
2019-04-16T15:11:24.098Z,12.80
2019-04-16T15:14:19.970Z,12.60
2019-04-16T15:17:12.945Z,12.70
2019-04-16T15:20:18.563Z,12.70
2019-04-16T15:23:09.979Z,12.50
2019-04-16T15:25:55.118Z,12.40
2019-04-16T15:28:35.703Z,12.40
2019-04-16T15:31:13.493Z,12.40
2019-04-16T15:33:48.443Z,12.40
2019-04-16T15:36:28.091Z,12.20
2019-04-16T15:39:10.574Z,12.10
2019-04-16T15:41:48.604Z,11.90
2019-04-16T15:44:31.952Z,11.80
2019-04-16T15:47:20.241Z,11.80
2019-04-16T15:50:06.767Z,11.70
2019-04-16T15:52:54.350Z,11.50
2019-04-16T15:55:44.230Z,11.40
2019-04-16T15:58:36.455Z,11.20
2019-04-16T16:01:37.735Z,11.00
2019-04-16T16:04:17.436Z,11.10
2019-04-16T16:07:08.189Z,11.00
2019-04-16T16:10:01.255Z,10.90
2019-04-16T16:12:36.537Z,10.90
2019-04-16T16:15:09.331Z,10.80
2019-04-16T16:17:40.801Z,10.60
2019-04-16T16:20:12.320Z,10.50
2019-04-16T16:25:42.775Z,10.30
2019-04-16T16:28:13.254Z,10.30
2019-04-16T16:30:43.804Z,10.10
2019-04-16T16:33:14.438Z,10.10
2019-04-16T16:35:57.704Z,10.20
2019-04-16T16:38:21.051Z,10.20
2019-04-16T16:40:54.307Z,10.30
2019-04-16T16:43:27.088Z,10.30
2019-04-16T16:46:10.000Z,10.10
2019-04-16T16:48:42.433Z,10.10
2019-04-16T16:51:15.598Z,10.10
2019-04-16T16:54:05.265Z,10.10
2019-04-16T17:00:20.760Z,10.30
2019-04-16T17:03:10.898Z,10.20
2019-04-16T17:05:47.449Z,10.20
2019-04-16T17:08:18.059Z,10.20
2019-04-16T17:10:48.652Z,10.20
2019-04-16T17:13:21.224Z,10.20
2019-04-16T17:15:51.307Z,10.20
2019-04-16T17:18:21.891Z,10.10
2019-04-16T17:20:53.655Z,10.00
2019-04-16T17:23:25.732Z,10.00
2019-04-16T17:25:58.520Z,10.00
2019-04-16T17:28:28.412Z,10.00
2019-04-16T17:30:59.024Z,10.00
2019-04-16T17:33:29.554Z,10.00
2019-04-16T17:36:00.661Z,9.90
2019-04-16T17:38:33.932Z,9.90
2019-04-16T17:41:07.254Z,9.70
2019-04-16T17:44:03.608Z,9.60
2019-04-16T17:46:51.338Z,9.60
2019-04-16T17:49:39.136Z,9.60
2019-04-16T17:52:13.514Z,9.50
2019-04-16T17:54:51.747Z,9.50
2019-04-16T17:57:31.712Z,9.40
2019-04-16T18:00:37.748Z,9.30
2019-04-16T18:03:42.814Z,9.30
2019-04-16T18:06:37.923Z,9.20
2019-04-16T18:09:27.625Z,9.20
2019-04-16T18:12:20.711Z,9.20
2019-04-16T18:14:59.072Z,9.20
2019-04-16T18:17:46.819Z,9.10
2019-04-16T18:20:31.683Z,9.10
2019-04-16T18:23:43.513Z,9.00
2019-04-16T18:30:06.940Z,8.90
2019-04-16T18:33:07.214Z,8.90
2019-04-16T18:35:45.364Z,8.90
2019-04-16T18:38:43.949Z,8.80
2019-04-16T18:41:27.730Z,8.80
2019-04-16T18:44:33.611Z,8.70
2019-04-16T18:47:23.508Z,8.70
2019-04-16T18:49:55.871Z,8.60
2019-04-16T18:52:26.485Z,8.60
2019-04-16T18:54:56.905Z,8.60
2019-04-16T18:57:27.394Z,8.60
2019-04-16T18:59:57.868Z,8.50
2019-04-16T19:02:29.653Z,8.50
2019-04-16T19:05:00.603Z,8.50
2019-04-16T19:07:35.821Z,8.50
2019-04-16T19:10:15.851Z,8.40
2019-04-16T19:12:46.366Z,8.40
2019-04-16T19:15:16.888Z,8.50
2019-04-16T19:17:47.430Z,8.40
2019-04-16T19:20:18.413Z,8.30
2019-04-16T19:22:49.971Z,8.30
2019-04-16T19:25:21.511Z,8.20
2019-04-16T19:27:52.497Z,8.20
2019-04-16T19:30:23.259Z,8.20
2019-04-16T19:32:53.950Z,8.30
2019-04-16T19:35:24.948Z,8.20
2019-04-16T19:37:55.694Z,8.30
2019-04-16T19:40:27.886Z,8.30
2019-04-16T19:43:02.541Z,8.20
2019-04-16T19:45:30.733Z,8.20
2019-04-16T19:48:02.126Z,8.20
2019-04-16T19:50:38.309Z,8.10
2019-04-16T19:53:13.777Z,8.00
2019-04-16T19:55:46.614Z,7.90
2019-04-16T19:58:17.233Z,7.90
2019-04-16T20:00:48.057Z,7.90
2019-04-16T20:03:30.538Z,7.80
2019-04-16T20:10:19.698Z,7.80
2019-04-16T20:12:09.565Z,7.70
2019-04-16T20:14:48.088Z,7.70
2019-04-16T20:17:25.078Z,7.70
2019-04-16T20:20:03.613Z,7.70
2019-04-16T20:22:52.134Z,7.70
2019-04-16T20:25:24.541Z,7.60
2019-04-16T20:27:58.838Z,7.60
2019-04-16T20:30:31.795Z,7.60
2019-04-16T20:33:04.066Z,7.50
2019-04-16T20:35:50.314Z,7.50
2019-04-16T20:38:18.219Z,7.50
2019-04-16T20:40:50.515Z,7.50
2019-04-16T20:43:41.724Z,7.50
2019-04-16T20:46:14.625Z,7.40
2019-04-16T20:49:16.568Z,7.40
2019-04-16T20:52:00.620Z,7.40
2019-04-16T20:54:44.274Z,7.40
2019-04-16T20:57:25.691Z,7.40
2019-04-16T20:59:55.864Z,7.40
2019-04-16T21:02:37.825Z,7.40
2019-04-16T21:05:21.577Z,7.40
2019-04-16T21:07:58.408Z,7.30
2019-04-16T21:10:35.641Z,7.30
2019-04-16T21:13:09.685Z,7.30
2019-04-16T21:15:48.558Z,7.30
2019-04-16T21:18:20.376Z,7.30
2019-04-16T21:20:55.369Z,7.30
2019-04-16T21:23:35.526Z,7.30
2019-04-16T21:26:06.210Z,7.30
2019-04-16T21:28:58.241Z,7.30
2019-04-16T21:31:42.372Z,7.20
2019-04-16T21:34:30.129Z,7.10
2019-04-16T21:37:40.732Z,7.10
2019-04-16T21:40:23.132Z,7.10
2019-04-16T21:42:59.251Z,7.00
2019-04-16T21:45:32.204Z,7.00
2019-04-16T21:48:12.334Z,6.90
2019-04-16T21:50:49.666Z,6.90
2019-04-16T21:53:42.441Z,7.00
2019-04-16T21:56:19.199Z,7.00
2019-04-16T21:59:04.722Z,7.00
2019-04-16T22:01:42.163Z,7.00
2019-04-16T22:04:27.482Z,7.00
2019-04-16T22:07:08.250Z,7.10
2019-04-16T22:09:46.851Z,7.10
2019-04-16T22:12:32.360Z,7.10
2019-04-16T22:19:24.650Z,7.10
2019-04-16T22:21:57.893Z,7.10
2019-04-16T22:24:55.037Z,7.10
2019-04-16T22:27:29.015Z,7.10
2019-04-16T22:30:10.624Z,7.10
2019-04-16T22:32:44.335Z,7.10
2019-04-16T22:38:35.481Z,7.10
2019-04-16T22:41:32.599Z,7.10
2019-04-16T22:44:23.404Z,7.10
2019-04-16T22:47:05.438Z,7.10
2019-04-16T22:49:35.990Z,7.10
2019-04-16T22:52:06.459Z,7.10
2019-04-16T22:54:38.853Z,7.10
2019-04-16T22:57:12.406Z,7.10
2019-04-16T22:59:43.988Z,7.10
2019-04-16T23:02:23.405Z,7.00
2019-04-16T23:04:57.876Z,7.00
2019-04-16T23:07:27.174Z,6.90
2019-04-16T23:09:57.795Z,7.00
2019-04-16T23:12:28.348Z,6.90
2019-04-16T23:14:58.992Z,7.00
2019-04-16T23:17:30.770Z,7.00
2019-04-16T23:20:01.221Z,7.00
2019-04-16T23:22:31.680Z,7.10
2019-04-16T23:25:02.149Z,7.10
2019-04-16T23:27:37.189Z,7.10
2019-04-16T23:30:06.631Z,7.10
2019-04-16T23:32:37.265Z,7.10
2019-04-16T23:35:10.797Z,7.10
2019-04-16T23:37:40.390Z,7.10
2019-04-16T23:40:12.104Z,7.10
2019-04-16T23:42:54.711Z,7.10
2019-04-16T23:45:48.540Z,7.00
2019-04-16T23:48:44.689Z,7.00
2019-04-16T23:51:20.889Z,7.00
2019-04-16T23:53:58.292Z,6.90
2019-04-16T23:56:52.941Z,6.90
2019-04-16T23:59:41.491Z,6.90
